sensor_id;sensor_type;location;lat;lon;timestamp;pressure;altitude;pressure_sealevel;temperature;humidity
59829;BME280;45708;51.848;107.620;2023-07-20T00:00:12;94559.88;;;24.63;39.15
59829;BME280;45708;51.848;107.620;2023-07-20T00:05:13;94573.19;;;25.41;37.68
59829;BME280;45708;51.848;107.620;2023-07-20T00:10:14;94574.41;;;25.90;36.70
59829;BME280;45708;51.848;107.620;2023-07-20T00:15:15;94575.91;;;26.50;36.28
59829;BME280;45708;51.848;107.620;2023-07-20T00:20:15;94576.34;;;27.06;35.06
59829;BME280;45708;51.848;107.620;2023-07-20T00:25:16;94574.38;;;27.27;34.86
59829;BME280;45708;51.848;107.620;2023-07-20T00:30:18;94569.06;;;28.16;33.96
59829;BME280;45708;51.848;107.620;2023-07-20T00:35:19;94570.31;;;27.58;33.67
59829;BME280;45708;51.848;107.620;2023-07-20T00:40:20;94566.69;;;27.30;33.27
59829;BME280;45708;51.848;107.620;2023-07-20T00:45:20;94563.78;;;28.76;31.78
59829;BME280;45708;51.848;107.620;2023-07-20T00:50:21;94556.97;;;28.82;31.23
59829;BME280;45708;51.848;107.620;2023-07-20T00:55:24;94559.97;;;29.05;31.55
59829;BME280;45708;51.848;107.620;2023-07-20T01:00:25;94562.56;;;29.45;30.03
59829;BME280;45708;51.848;107.620;2023-07-20T01:05:54;94551.84;;;29.52;29.64
59829;BME280;45708;51.848;107.620;2023-07-20T01:11:01;94554.28;;;29.57;29.43
59829;BME280;45708;51.848;107.620;2023-07-20T01:16:04;94544.34;;;30.51;28.16
59829;BME280;45708;51.848;107.620;2023-07-20T01:21:10;94546.31;;;31.31;27.90
59829;BME280;45708;51.848;107.620;2023-07-20T01:26:34;94543.06;;;30.83;28.27
59829;BME280;45708;51.848;107.620;2023-07-20T01:31:38;94545.31;;;31.20;27.52
59829;BME280;45708;51.848;107.620;2023-07-20T01:36:42;94539.59;;;30.28;27.20
59829;BME280;45708;51.848;107.620;2023-07-20T01:41:43;94548.41;;;29.55;29.04
59829;BME280;45708;51.848;107.620;2023-07-20T01:46:45;94549.72;;;29.30;27.92
59829;BME280;45708;51.848;107.620;2023-07-20T01:51:46;94547.16;;;29.37;27.67
59829;BME280;45708;51.848;107.620;2023-07-20T01:56:47;94550.19;;;28.88;28.02
59829;BME280;45708;51.848;107.620;2023-07-20T02:01:47;94544.00;;;28.23;28.47
59829;BME280;45708;51.848;107.620;2023-07-20T02:06:48;94539.06;;;30.04;26.81
59829;BME280;45708;51.848;107.620;2023-07-20T02:11:49;94526.00;;;30.48;26.13
59829;BME280;45708;51.848;107.620;2023-07-20T02:16:50;94519.75;;;30.28;26.34
59829;BME280;45708;51.848;107.620;2023-07-20T02:21:52;94518.66;;;30.33;25.52
59829;BME280;45708;51.848;107.620;2023-07-20T02:26:52;94513.53;;;29.77;25.79
59829;BME280;45708;51.848;107.620;2023-07-20T02:31:53;94514.63;;;29.56;26.16
59829;BME280;45708;51.848;107.620;2023-07-20T02:36:54;94507.53;;;30.22;24.98
59829;BME280;45708;51.848;107.620;2023-07-20T02:41:55;94496.00;;;30.09;25.49
59829;BME280;45708;51.848;107.620;2023-07-20T02:46:56;94486.75;;;31.63;24.99
59829;BME280;45708;51.848;107.620;2023-07-20T02:51:57;94483.47;;;31.05;24.85
59829;BME280;45708;51.848;107.620;2023-07-20T02:56:58;94479.06;;;30.77;24.84
59829;BME280;45708;51.848;107.620;2023-07-20T03:01:59;94471.50;;;30.67;25.27
59829;BME280;45708;51.848;107.620;2023-07-20T03:07:00;94482.75;;;29.92;25.55
59829;BME280;45708;51.848;107.620;2023-07-20T03:12:00;94482.88;;;28.41;27.39
59829;BME280;45708;51.848;107.620;2023-07-20T03:17:01;94475.34;;;27.58;27.75
59829;BME280;45708;51.848;107.620;2023-07-20T03:22:02;94470.34;;;26.87;27.84
59829;BME280;45708;51.848;107.620;2023-07-20T03:27:03;94467.78;;;26.57;28.41
59829;BME280;45708;51.848;107.620;2023-07-20T03:32:04;94469.84;;;26.06;28.25
59829;BME280;45708;51.848;107.620;2023-07-20T03:37:05;94452.13;;;25.46;28.63
59829;BME280;45708;51.848;107.620;2023-07-20T03:42:06;94452.72;;;25.23;28.97
59829;BME280;45708;51.848;107.620;2023-07-20T03:47:06;94449.78;;;24.98;28.57
59829;BME280;45708;51.848;107.620;2023-07-20T03:52:07;94453.22;;;24.78;29.34
59829;BME280;45708;51.848;107.620;2023-07-20T03:57:08;94447.06;;;24.60;29.12
59829;BME280;45708;51.848;107.620;2023-07-20T04:02:09;94440.94;;;24.42;29.62
59829;BME280;45708;51.848;107.620;2023-07-20T04:07:10;94432.22;;;24.19;29.65
59829;BME280;45708;51.848;107.620;2023-07-20T04:12:11;94428.09;;;24.31;28.97
59829;BME280;45708;51.848;107.620;2023-07-20T04:17:12;94433.50;;;24.31;29.15
59829;BME280;45708;51.848;107.620;2023-07-20T04:22:13;94430.63;;;24.36;29.27
59829;BME280;45708;51.848;107.620;2023-07-20T04:27:14;94416.63;;;24.51;28.72
59829;BME280;45708;51.848;107.620;2023-07-20T04:32:14;94412.66;;;24.48;28.76
59829;BME280;45708;51.848;107.620;2023-07-20T04:37:15;94403.81;;;24.77;28.88
59829;BME280;45708;51.848;107.620;2023-07-20T04:42:16;94395.69;;;24.86;28.78
59829;BME280;45708;51.848;107.620;2023-07-20T04:47:17;94382.69;;;25.09;28.64
59829;BME280;45708;51.848;107.620;2023-07-20T04:52:17;94386.59;;;25.20;28.77
59829;BME280;45708;51.848;107.620;2023-07-20T04:57:18;94375.53;;;25.13;29.21
59829;BME280;45708;51.848;107.620;2023-07-20T05:02:19;94370.53;;;25.44;28.86
59829;BME280;45708;51.848;107.620;2023-07-20T05:07:20;94377.84;;;25.65;28.89
59829;BME280;45708;51.848;107.620;2023-07-20T05:12:21;94367.38;;;25.84;29.08
59829;BME280;45708;51.848;107.620;2023-07-20T05:17:21;94366.56;;;26.17;28.79
59829;BME280;45708;51.848;107.620;2023-07-20T05:22:22;94361.50;;;26.73;28.89
59829;BME280;45708;51.848;107.620;2023-07-20T05:27:23;94364.34;;;27.01;27.94
59829;BME280;45708;51.848;107.620;2023-07-20T05:32:24;94352.09;;;26.58;28.01
59829;BME280;45708;51.848;107.620;2023-07-20T05:37:25;94356.41;;;26.95;27.87
59829;BME280;45708;51.848;107.620;2023-07-20T05:42:25;94350.63;;;27.21;27.64
59829;BME280;45708;51.848;107.620;2023-07-20T05:47:26;94351.25;;;27.43;27.93
59829;BME280;45708;51.848;107.620;2023-07-20T05:52:27;94344.25;;;27.66;27.77
59829;BME280;45708;51.848;107.620;2023-07-20T05:57:28;94344.50;;;27.89;28.03
59829;BME280;45708;51.848;107.620;2023-07-20T06:02:28;94332.09;;;27.76;28.41
59829;BME280;45708;51.848;107.620;2023-07-20T06:07:29;94328.31;;;26.76;29.06
59829;BME280;45708;51.848;107.620;2023-07-20T06:12:30;94321.13;;;25.77;29.88
59829;BME280;45708;51.848;107.620;2023-07-20T06:17:31;94318.38;;;25.23;30.44
59829;BME280;45708;51.848;107.620;2023-07-20T06:22:32;94323.47;;;24.95;30.58
59829;BME280;45708;51.848;107.620;2023-07-20T06:27:33;94316.41;;;25.32;30.54
59829;BME280;45708;51.848;107.620;2023-07-20T06:32:33;94318.88;;;25.79;30.25
59829;BME280;45708;51.848;107.620;2023-07-20T06:37:35;94315.19;;;25.96;30.22
59829;BME280;45708;51.848;107.620;2023-07-20T06:42:36;94314.06;;;25.85;30.53
59829;BME280;45708;51.848;107.620;2023-07-20T06:47:40;94306.72;;;25.85;30.35
59829;BME280;45708;51.848;107.620;2023-07-20T06:52:41;94285.78;;;25.94;30.61
59829;BME280;45708;51.848;107.620;2023-07-20T06:57:42;94292.00;;;26.07;30.85
59829;BME280;45708;51.848;107.620;2023-07-20T07:02:42;94283.03;;;25.82;30.90
59829;BME280;45708;51.848;107.620;2023-07-20T07:07:43;94280.59;;;26.01;30.79
59829;BME280;45708;51.848;107.620;2023-07-20T07:12:44;94272.63;;;26.05;31.05
59829;BME280;45708;51.848;107.620;2023-07-20T07:17:45;94264.75;;;26.24;30.81
59829;BME280;45708;51.848;107.620;2023-07-20T07:22:46;94249.03;;;26.18;30.75
59829;BME280;45708;51.848;107.620;2023-07-20T07:27:47;94255.16;;;26.39;30.40
59829;BME280;45708;51.848;107.620;2023-07-20T07:32:49;94250.69;;;26.43;30.50
59829;BME280;45708;51.848;107.620;2023-07-20T07:37:50;94240.22;;;26.82;30.46
59829;BME280;45708;51.848;107.620;2023-07-20T07:42:51;94242.03;;;26.90;29.88
59829;BME280;45708;51.848;107.620;2023-07-20T07:47:51;94231.19;;;26.90;30.39
59829;BME280;45708;51.848;107.620;2023-07-20T07:52:52;94237.44;;;27.18;30.25
59829;BME280;45708;51.848;107.620;2023-07-20T07:57:53;94224.13;;;27.41;30.39
59829;BME280;45708;51.848;107.620;2023-07-20T08:02:54;94223.91;;;27.62;29.93
59829;BME280;45708;51.848;107.620;2023-07-20T08:07:55;94216.28;;;27.64;30.26
59829;BME280;45708;51.848;107.620;2023-07-20T08:12:56;94211.75;;;27.56;29.85
59829;BME280;45708;51.848;107.620;2023-07-20T08:17:57;94212.19;;;27.58;30.06
59829;BME280;45708;51.848;107.620;2023-07-20T08:22:57;94205.63;;;27.87;29.89
59829;BME280;45708;51.848;107.620;2023-07-20T08:27:58;94200.19;;;28.03;29.54
59829;BME280;45708;51.848;107.620;2023-07-20T08:32:59;94202.66;;;28.08;29.63
59829;BME280;45708;51.848;107.620;2023-07-20T08:38:00;94203.53;;;28.28;29.49
59829;BME280;45708;51.848;107.620;2023-07-20T08:43:00;94211.06;;;28.34;28.85
59829;BME280;45708;51.848;107.620;2023-07-20T08:48:01;94214.56;;;28.35;28.63
59829;BME280;45708;51.848;107.620;2023-07-20T08:53:03;94207.75;;;28.25;28.45
59829;BME280;45708;51.848;107.620;2023-07-20T08:58:05;94211.50;;;28.05;28.44
59829;BME280;45708;51.848;107.620;2023-07-20T09:03:09;94209.03;;;27.84;29.00
59829;BME280;45708;51.848;107.620;2023-07-20T09:08:10;94193.34;;;27.77;28.55
59829;BME280;45708;51.848;107.620;2023-07-20T09:13:15;94216.81;;;27.70;28.40
59829;BME280;45708;51.848;107.620;2023-07-20T09:18:25;94226.97;;;27.61;28.91
59829;BME280;45708;51.848;107.620;2023-07-20T09:23:32;94227.81;;;27.33;28.68
59829;BME280;45708;51.848;107.620;2023-07-20T09:28:41;94217.94;;;27.13;28.51
59829;BME280;45708;51.848;107.620;2023-07-20T09:33:42;94228.53;;;27.18;28.50
59829;BME280;45708;51.848;107.620;2023-07-20T09:38:43;94242.69;;;27.39;28.27
59829;BME280;45708;51.848;107.620;2023-07-20T09:43:45;94235.09;;;27.45;28.47
59829;BME280;45708;51.848;107.620;2023-07-20T09:48:55;94239.28;;;27.42;28.59
59829;BME280;45708;51.848;107.620;2023-07-20T09:53:56;94240.16;;;27.18;28.67
59829;BME280;45708;51.848;107.620;2023-07-20T09:58:57;94233.09;;;27.02;29.16
59829;BME280;45708;51.848;107.620;2023-07-20T10:03:59;94239.44;;;26.81;29.86
59829;BME280;45708;51.848;107.620;2023-07-20T10:09:03;94226.47;;;26.87;29.44
59829;BME280;45708;51.848;107.620;2023-07-20T10:14:04;94226.75;;;26.97;29.76
59829;BME280;45708;51.848;107.620;2023-07-20T10:19:07;94223.69;;;26.99;29.56
59829;BME280;45708;51.848;107.620;2023-07-20T10:24:09;94212.84;;;26.99;29.89
59829;BME280;45708;51.848;107.620;2023-07-20T10:29:10;94201.03;;;26.91;29.69
59829;BME280;45708;51.848;107.620;2023-07-20T10:34:12;94199.44;;;26.50;29.92
59829;BME280;45708;51.848;107.620;2023-07-20T10:39:26;94209.00;;;26.23;29.66
59829;BME280;45708;51.848;107.620;2023-07-20T10:44:27;94204.16;;;26.17;29.54
59829;BME280;45708;51.848;107.620;2023-07-20T10:49:28;94210.03;;;26.06;29.77
59829;BME280;45708;51.848;107.620;2023-07-20T11:04:44;94237.03;;;25.49;30.83
59829;BME280;45708;51.848;107.620;2023-07-20T11:09:45;94225.47;;;25.28;31.93
59829;BME280;45708;51.848;107.620;2023-07-20T11:14:56;94232.03;;;25.06;31.96
59829;BME280;45708;51.848;107.620;2023-07-20T11:19:58;94235.28;;;24.91;32.48
59829;BME280;45708;51.848;107.620;2023-07-20T11:25:00;94232.25;;;24.71;32.54
59829;BME280;45708;51.848;107.620;2023-07-20T11:30:00;94246.19;;;24.52;32.98
59829;BME280;45708;51.848;107.620;2023-07-20T11:35:01;94227.59;;;24.30;33.26
59829;BME280;45708;51.848;107.620;2023-07-20T11:40:02;94232.53;;;24.19;33.66
59829;BME280;45708;51.848;107.620;2023-07-20T11:45:03;94249.56;;;24.03;33.74
59829;BME280;45708;51.848;107.620;2023-07-20T11:50:06;94254.06;;;23.90;33.89
59829;BME280;45708;51.848;107.620;2023-07-20T11:55:07;94260.00;;;23.75;34.23
59829;BME280;45708;51.848;107.620;2023-07-20T12:00:09;94272.53;;;23.62;34.33
59829;BME280;45708;51.848;107.620;2023-07-20T12:05:11;94276.66;;;23.51;34.58
59829;BME280;45708;51.848;107.620;2023-07-20T12:10:12;94257.81;;;23.33;35.02
59829;BME280;45708;51.848;107.620;2023-07-20T12:20:44;94265.75;;;23.13;35.14
59829;BME280;45708;51.848;107.620;2023-07-20T12:25:46;94284.44;;;23.00;35.71
59829;BME280;45708;51.848;107.620;2023-07-20T12:30:47;94271.94;;;22.87;36.04
59829;BME280;45708;51.848;107.620;2023-07-20T12:35:49;94277.09;;;22.75;36.16
59829;BME280;45708;51.848;107.620;2023-07-20T12:40:50;94282.44;;;22.58;36.33
59829;BME280;45708;51.848;107.620;2023-07-20T12:45:51;94272.63;;;22.44;36.27
59829;BME280;45708;51.848;107.620;2023-07-20T12:50:51;94286.19;;;22.39;36.39
59829;BME280;45708;51.848;107.620;2023-07-20T12:55:52;94289.03;;;22.34;36.60
59829;BME280;45708;51.848;107.620;2023-07-20T13:00:53;94297.25;;;22.29;36.80
59829;BME280;45708;51.848;107.620;2023-07-20T13:05:54;94304.69;;;22.24;36.96
59829;BME280;45708;51.848;107.620;2023-07-20T13:10:55;94311.13;;;22.14;37.11
59829;BME280;45708;51.848;107.620;2023-07-20T13:15:56;94316.88;;;21.99;37.45
59829;BME280;45708;51.848;107.620;2023-07-20T13:20:56;94320.09;;;21.78;37.87
59829;BME280;45708;51.848;107.620;2023-07-20T13:25:57;94318.53;;;21.55;38.57
59829;BME280;45708;51.848;107.620;2023-07-20T13:30:58;94311.19;;;21.24;39.45
59829;BME280;45708;51.848;107.620;2023-07-20T13:35:59;94327.34;;;20.97;40.24
59829;BME280;45708;51.848;107.620;2023-07-20T13:41:00;94326.69;;;20.78;40.93
59829;BME280;45708;51.848;107.620;2023-07-20T13:46:00;94322.72;;;20.61;41.19
59829;BME280;45708;51.848;107.620;2023-07-20T13:51:01;94325.44;;;20.48;41.43
59829;BME280;45708;51.848;107.620;2023-07-20T13:56:02;94323.22;;;20.36;41.52
59829;BME280;45708;51.848;107.620;2023-07-20T14:01:03;94323.94;;;20.28;41.79
59829;BME280;45708;51.848;107.620;2023-07-20T14:06:03;94329.78;;;20.16;42.01
59829;BME280;45708;51.848;107.620;2023-07-20T14:11:07;94334.31;;;20.02;42.21
59829;BME280;45708;51.848;107.620;2023-07-20T14:16:08;94342.84;;;19.90;42.24
59829;BME280;45708;51.848;107.620;2023-07-20T14:21:09;94349.75;;;19.78;42.73
59829;BME280;45708;51.848;107.620;2023-07-20T14:26:09;94347.97;;;19.73;42.94
59829;BME280;45708;51.848;107.620;2023-07-20T14:31:10;94349.34;;;19.70;42.95
59829;BME280;45708;51.848;107.620;2023-07-20T14:36:11;94359.38;;;19.65;42.99
59829;BME280;45708;51.848;107.620;2023-07-20T14:41:12;94347.41;;;19.57;42.97
59829;BME280;45708;51.848;107.620;2023-07-20T14:46:13;94347.13;;;19.59;43.10
59829;BME280;45708;51.848;107.620;2023-07-20T14:51:13;94325.09;;;19.62;43.22
59829;BME280;45708;51.848;107.620;2023-07-20T14:56:14;94323.50;;;19.61;43.22
59829;BME280;45708;51.848;107.620;2023-07-20T15:01:15;94326.28;;;19.56;43.12
59829;BME280;45708;51.848;107.620;2023-07-20T15:06:16;94317.97;;;19.38;43.59
59829;BME280;45708;51.848;107.620;2023-07-20T15:11:17;94348.00;;;19.35;43.40
59829;BME280;45708;51.848;107.620;2023-07-20T15:16:17;94337.81;;;19.19;43.74
59829;BME280;45708;51.848;107.620;2023-07-20T15:21:19;94345.50;;;19.06;44.13
59829;BME280;45708;51.848;107.620;2023-07-20T15:26:20;94350.25;;;18.91;44.84
59829;BME280;45708;51.848;107.620;2023-07-20T15:31:21;94353.59;;;18.82;45.11
59829;BME280;45708;51.848;107.620;2023-07-20T15:36:21;94341.94;;;18.73;45.03
59829;BME280;45708;51.848;107.620;2023-07-20T15:41:22;94352.50;;;18.65;45.29
59829;BME280;45708;51.848;107.620;2023-07-20T15:51:24;94339.09;;;18.41;45.56
59829;BME280;45708;51.848;107.620;2023-07-20T15:56:24;94324.75;;;18.32;45.92
59829;BME280;45708;51.848;107.620;2023-07-20T16:01:25;94326.88;;;18.35;46.10
59829;BME280;45708;51.848;107.620;2023-07-20T16:06:26;94338.00;;;18.42;46.03
59829;BME280;45708;51.848;107.620;2023-07-20T16:11:27;94336.69;;;18.39;46.17
59829;BME280;45708;51.848;107.620;2023-07-20T16:16:31;94338.88;;;18.37;46.20
59829;BME280;45708;51.848;107.620;2023-07-20T16:21:32;94321.16;;;18.22;46.44
59829;BME280;45708;51.848;107.620;2023-07-20T16:26:33;94340.31;;;18.30;46.38
59829;BME280;45708;51.848;107.620;2023-07-20T16:31:33;94334.09;;;18.34;47.40
59829;BME280;45708;51.848;107.620;2023-07-20T16:36:34;94344.44;;;18.41;47.57
59829;BME280;45708;51.848;107.620;2023-07-20T16:41:35;94346.59;;;18.39;48.09
59829;BME280;45708;51.848;107.620;2023-07-20T16:46:36;94354.69;;;18.34;48.15
59829;BME280;45708;51.848;107.620;2023-07-20T16:51:37;94352.66;;;18.26;48.37
59829;BME280;45708;51.848;107.620;2023-07-20T16:56:37;94363.63;;;18.24;48.49
59829;BME280;45708;51.848;107.620;2023-07-20T17:01:38;94373.00;;;18.21;48.51
59829;BME280;45708;51.848;107.620;2023-07-20T17:06:39;94362.06;;;18.18;48.61
59829;BME280;45708;51.848;107.620;2023-07-20T17:11:40;94347.97;;;18.12;48.95
59829;BME280;45708;51.848;107.620;2023-07-20T17:16:41;94348.03;;;18.07;48.73
59829;BME280;45708;51.848;107.620;2023-07-20T17:21:42;94352.22;;;18.13;48.76
59829;BME280;45708;51.848;107.620;2023-07-20T17:26:43;94369.25;;;18.22;48.85
59829;BME280;45708;51.848;107.620;2023-07-20T17:31:45;94373.47;;;18.29;48.69
59829;BME280;45708;51.848;107.620;2023-07-20T17:36:46;94382.50;;;18.33;49.03
59829;BME280;45708;51.848;107.620;2023-07-20T17:41:47;94383.38;;;18.28;48.92
59829;BME280;45708;51.848;107.620;2023-07-20T17:46:48;94370.13;;;17.89;49.29
59829;BME280;45708;51.848;107.620;2023-07-20T17:51:49;94385.91;;;17.51;50.17
59829;BME280;45708;51.848;107.620;2023-07-20T17:56:49;94389.59;;;17.16;50.73
59829;BME280;45708;51.848;107.620;2023-07-20T18:01:50;94396.38;;;17.03;50.60
59829;BME280;45708;51.848;107.620;2023-07-20T18:06:51;94396.38;;;17.03;50.59
59829;BME280;45708;51.848;107.620;2023-07-20T18:11:52;94399.50;;;17.16;50.19
59829;BME280;45708;51.848;107.620;2023-07-20T18:16:53;94409.56;;;17.29;50.21
59829;BME280;45708;51.848;107.620;2023-07-20T18:21:55;94424.97;;;17.42;50.10
59829;BME280;45708;51.848;107.620;2023-07-20T18:26:56;94457.41;;;17.59;50.45
59829;BME280;45708;51.848;107.620;2023-07-20T18:31:57;94510.81;;;17.59;50.97
59829;BME280;45708;51.848;107.620;2023-07-20T18:36:58;94511.94;;;17.53;51.66
59829;BME280;45708;51.848;107.620;2023-07-20T18:41:58;94471.91;;;17.48;51.80
59829;BME280;45708;51.848;107.620;2023-07-20T18:47:00;94480.97;;;17.52;51.55
59829;BME280;45708;51.848;107.620;2023-07-20T18:52:01;94490.78;;;17.62;51.55
59829;BME280;45708;51.848;107.620;2023-07-20T18:57:02;94482.50;;;17.58;51.57
59829;BME280;45708;51.848;107.620;2023-07-20T19:02:03;94419.81;;;17.12;51.44
59829;BME280;45708;51.848;107.620;2023-07-20T19:07:04;94494.31;;;17.52;51.71
59829;BME280;45708;51.848;107.620;2023-07-20T19:12:06;94490.81;;;17.57;51.54
59829;BME280;45708;51.848;107.620;2023-07-20T19:17:06;94477.72;;;17.55;51.72
59829;BME280;45708;51.848;107.620;2023-07-20T19:22:07;94490.22;;;17.65;51.72
59829;BME280;45708;51.848;107.620;2023-07-20T19:27:08;94490.50;;;17.63;51.74
59829;BME280;45708;51.848;107.620;2023-07-20T19:32:09;94496.09;;;17.72;51.93
59829;BME280;45708;51.848;107.620;2023-07-20T19:37:10;94491.59;;;17.68;52.30
59829;BME280;45708;51.848;107.620;2023-07-20T19:42:10;94504.56;;;17.79;52.35
59829;BME280;45708;51.848;107.620;2023-07-20T19:47:11;94501.38;;;17.82;52.66
59829;BME280;45708;51.848;107.620;2023-07-20T19:52:12;94489.91;;;17.77;53.05
59829;BME280;45708;51.848;107.620;2023-07-20T19:57:13;94508.56;;;17.82;53.84
59829;BME280;45708;51.848;107.620;2023-07-20T20:02:14;94507.84;;;17.71;54.46
59829;BME280;45708;51.848;107.620;2023-07-20T20:07:14;94514.22;;;17.75;54.81
59829;BME280;45708;51.848;107.620;2023-07-20T20:12:15;94511.88;;;17.69;55.64
59829;BME280;45708;51.848;107.620;2023-07-20T20:17:16;94507.88;;;17.61;56.33
59829;BME280;45708;51.848;107.620;2023-07-20T20:22:17;94496.75;;;17.49;57.11
59829;BME280;45708;51.848;107.620;2023-07-20T20:27:18;94500.75;;;17.46;57.22
59829;BME280;45708;51.848;107.620;2023-07-20T20:32:19;94501.03;;;17.45;57.67
59829;BME280;45708;51.848;107.620;2023-07-20T20:37:20;94498.66;;;17.38;58.30
59829;BME280;45708;51.848;107.620;2023-07-20T20:42:20;94497.63;;;17.34;58.36
59829;BME280;45708;51.848;107.620;2023-07-20T20:47:21;94486.97;;;17.29;58.37
59829;BME280;45708;51.848;107.620;2023-07-20T20:52:22;94500.84;;;17.31;58.63
59829;BME280;45708;51.848;107.620;2023-07-20T20:57:23;94489.63;;;17.29;58.38
59829;BME280;45708;51.848;107.620;2023-07-20T21:02:24;94500.25;;;17.44;58.32
59829;BME280;45708;51.848;107.620;2023-07-20T21:07:24;94487.97;;;17.38;58.26
59829;BME280;45708;51.848;107.620;2023-07-20T21:12:25;94504.50;;;17.45;58.44
59829;BME280;45708;51.848;107.620;2023-07-20T21:17:26;94513.03;;;17.47;58.38
59829;BME280;45708;51.848;107.620;2023-07-20T21:22:27;94529.06;;;17.47;58.59
59829;BME280;45708;51.848;107.620;2023-07-20T21:27:28;94525.59;;;17.47;58.74
59829;BME280;45708;51.848;107.620;2023-07-20T21:32:28;94517.88;;;17.40;58.87
59829;BME280;45708;51.848;107.620;2023-07-20T21:37:29;94525.88;;;17.45;58.79
59829;BME280;45708;51.848;107.620;2023-07-20T21:42:30;94524.00;;;17.46;58.77
59829;BME280;45708;51.848;107.620;2023-07-20T21:47:31;94519.41;;;17.51;58.80
59829;BME280;45708;51.848;107.620;2023-07-20T21:52:31;94516.78;;;17.46;59.02
59829;BME280;45708;51.848;107.620;2023-07-20T21:57:33;94509.56;;;17.47;59.34
59829;BME280;45708;51.848;107.620;2023-07-20T22:02:34;94510.88;;;17.49;59.39
59829;BME280;45708;51.848;107.620;2023-07-20T22:07:35;94518.13;;;17.44;59.37
59829;BME280;45708;51.848;107.620;2023-07-20T22:12:35;94504.31;;;17.31;59.83
59829;BME280;45708;51.848;107.620;2023-07-20T22:17:36;94517.09;;;17.34;59.90
59829;BME280;45708;51.848;107.620;2023-07-20T22:22:37;94505.75;;;17.09;60.81
59829;BME280;45708;51.848;107.620;2023-07-20T22:27:38;94519.19;;;16.83;61.18
59829;BME280;45708;51.848;107.620;2023-07-20T22:32:40;94515.41;;;16.94;60.95
59829;BME280;45708;51.848;107.620;2023-07-20T22:37:41;94532.69;;;17.12;60.53
59829;BME280;45708;51.848;107.620;2023-07-20T22:42:41;94536.25;;;16.82;61.18
59829;BME280;45708;51.848;107.620;2023-07-20T22:47:42;94553.31;;;16.81;60.88
59829;BME280;45708;51.848;107.620;2023-07-20T22:52:44;94556.00;;;16.51;61.56
59829;BME280;45708;51.848;107.620;2023-07-20T22:57:44;94571.22;;;16.35;62.01
59829;BME280;45708;51.848;107.620;2023-07-20T23:02:45;94571.22;;;16.35;61.57
59829;BME280;45708;51.848;107.620;2023-07-20T23:07:46;94558.16;;;16.23;62.19
59829;BME280;45708;51.848;107.620;2023-07-20T23:12:47;94575.75;;;16.24;62.79
59829;BME280;45708;51.848;107.620;2023-07-20T23:17:48;94567.22;;;16.22;62.55
59829;BME280;45708;51.848;107.620;2023-07-20T23:22:49;94564.28;;;16.44;62.33
59829;BME280;45708;51.848;107.620;2023-07-20T23:27:50;94574.66;;;16.56;62.41
59829;BME280;45708;51.848;107.620;2023-07-20T23:32:51;94572.00;;;16.66;61.86
59829;BME280;45708;51.848;107.620;2023-07-20T23:37:52;94576.28;;;16.62;61.80
59829;BME280;45708;51.848;107.620;2023-07-20T23:42:53;94582.16;;;16.69;61.47
59829;BME280;45708;51.848;107.620;2023-07-20T23:47:54;94589.34;;;16.73;60.99
59829;BME280;45708;51.848;107.620;2023-07-20T23:52:55;94580.25;;;16.85;60.27
59829;BME280;45708;51.848;107.620;2023-07-20T23:57:56;94584.78;;;16.89;60.16
